createdAt,value
2019-04-24T00:01:20.733Z,11.57
2019-04-24T00:06:38.526Z,12.60
2019-04-24T00:14:10.456Z,12.83
2019-04-24T00:16:32.772Z,12.07
2019-04-24T00:21:21.831Z,12.57
2019-04-24T00:26:19.618Z,12.30
2019-04-24T00:28:53.145Z,11.80
2019-04-24T00:33:54.828Z,12.23
2019-04-24T00:39:00.476Z,12.43
2019-04-24T00:41:21.850Z,11.93
2019-04-24T00:56:17.425Z,12.17
2019-04-24T00:58:37.346Z,12.10
2019-04-24T01:01:38.085Z,12.13
2019-04-24T01:04:26.668Z,13.53
2019-04-24T01:07:03.808Z,12.83
2019-04-24T01:09:22.291Z,12.47
2019-04-24T01:11:45.459Z,12.83
2019-04-24T01:16:45.043Z,13.63
2019-04-24T01:19:10.218Z,13.63
2019-04-24T01:21:49.810Z,12.90
2019-04-24T01:26:51.341Z,12.63
2019-04-24T01:31:46.597Z,13.83
2019-04-24T01:34:28.597Z,13.90
2019-04-24T01:36:57.775Z,14.00
2019-04-24T01:39:43.848Z,13.30
2019-04-24T01:47:16.694Z,13.50
2019-04-24T01:54:35.846Z,13.93
2019-04-24T01:57:05.092Z,13.60
2019-04-24T01:59:40.565Z,13.37
2019-04-24T02:02:00.879Z,14.23
2019-04-24T02:04:35.579Z,13.97
2019-04-24T02:07:19.840Z,19.60
2019-04-24T02:10:27.076Z,50.33
2019-04-24T02:12:39.481Z,22.23
2019-04-24T02:14:59.430Z,15.20
2019-04-24T02:17:33.094Z,14.23
2019-04-24T02:20:09.230Z,13.90
2019-04-24T02:22:24.339Z,13.50
2019-04-24T02:27:23.337Z,13.70
2019-04-24T02:30:11.411Z,12.60
2019-04-24T02:40:14.770Z,12.80
2019-04-24T02:48:03.530Z,12.53
2019-04-24T02:50:42.587Z,12.50
2019-04-24T02:55:13.627Z,13.37
2019-04-24T03:00:24.040Z,13.00
2019-04-24T03:05:15.860Z,13.17
2019-04-24T03:18:01.156Z,12.53
2019-04-24T03:20:30.084Z,12.33
2019-04-24T03:22:56.906Z,11.83
2019-04-24T03:25:49.828Z,12.37
2019-04-24T03:27:54.362Z,12.40
2019-04-24T03:30:43.388Z,12.10
2019-04-24T03:33:15.555Z,12.00
2019-04-24T03:40:50.503Z,13.13
2019-04-24T03:51:24.162Z,12.23
2019-04-24T03:53:13.317Z,11.93
2019-04-24T03:58:29.393Z,11.43
2019-04-24T04:08:37.359Z,12.00
2019-04-24T04:10:39.203Z,11.87
2019-04-24T04:13:20.196Z,11.90
2019-04-24T04:20:50.116Z,11.47
2019-04-24T04:26:21.322Z,12.17
2019-04-24T04:28:33.685Z,11.50
2019-04-24T04:41:37.222Z,12.23
2019-04-24T04:44:19.056Z,10.90
2019-04-24T04:46:57.875Z,11.17
2019-04-24T04:49:38.647Z,11.87
2019-04-24T04:54:41.844Z,12.07
2019-04-24T04:56:46.010Z,11.93
2019-04-24T05:03:00.330Z,12.60
2019-04-24T05:04:42.491Z,17.43
2019-04-24T05:12:12.341Z,23.97
2019-04-24T05:14:43.629Z,14.70
2019-04-24T05:16:57.905Z,14.37
2019-04-24T05:24:21.428Z,12.97
2019-04-24T05:32:08.851Z,10.20
2019-04-24T05:34:58.216Z,10.97
2019-04-24T05:37:25.449Z,10.73
2019-04-24T05:39:59.086Z,10.67
2019-04-24T05:42:39.368Z,10.83
2019-04-24T05:44:46.523Z,11.30
2019-04-24T05:47:31.072Z,11.47
2019-04-24T05:50:00.803Z,11.80
2019-04-24T05:52:32.396Z,11.53
2019-04-24T05:54:42.938Z,11.53
2019-04-24T05:57:49.187Z,10.53
2019-04-24T05:59:57.632Z,11.20
2019-04-24T06:04:57.919Z,15.70
2019-04-24T06:07:17.077Z,31.17
2019-04-24T06:09:55.814Z,24.00
2019-04-24T06:12:27.269Z,14.83
2019-04-24T06:14:56.119Z,13.57
2019-04-24T06:17:45.976Z,13.07
2019-04-24T06:20:32.745Z,12.77
2019-04-24T06:22:56.859Z,12.73
2019-04-24T06:25:06.395Z,12.93
2019-04-24T06:30:27.602Z,21.27
2019-04-24T06:38:02.937Z,31.57
2019-04-24T06:41:06.597Z,24.00
2019-04-24T06:43:10.685Z,17.33
2019-04-24T06:45:40.574Z,16.43
2019-04-24T06:48:07.281Z,15.43
2019-04-24T06:55:45.331Z,10.77
2019-04-24T06:58:06.656Z,10.73
2019-04-24T07:00:52.580Z,8.57
2019-04-24T07:03:56.158Z,8.63
2019-04-24T07:09:09.563Z,7.53
2019-04-24T07:11:05.731Z,6.90
2019-04-24T07:13:54.184Z,6.47
2019-04-24T07:16:10.122Z,5.50
2019-04-24T07:18:32.902Z,6.00
2019-04-24T07:23:57.911Z,8.20
2019-04-24T07:28:40.461Z,6.93
2019-04-24T07:31:13.722Z,6.10
2019-04-24T07:36:21.739Z,5.90
2019-04-24T07:38:40.392Z,5.80
2019-04-24T07:41:51.572Z,5.77
2019-04-24T07:49:12.261Z,4.67
2019-04-24T07:52:00.700Z,5.03
2019-04-24T07:59:42.866Z,5.63
2019-04-24T08:02:02.825Z,5.70
2019-04-24T08:10:06.063Z,6.40
2019-04-24T08:12:07.511Z,5.30
2019-04-24T08:14:56.091Z,5.63
2019-04-24T08:17:10.641Z,5.50
2019-04-24T08:22:05.602Z,5.00
2019-04-24T08:24:44.750Z,4.87
2019-04-24T08:27:09.983Z,5.40
2019-04-24T08:29:31.843Z,6.13
2019-04-24T08:39:42.359Z,4.60
2019-04-24T08:42:29.056Z,8.97
2019-04-24T08:45:08.248Z,14.13
2019-04-24T08:49:57.232Z,5.43
2019-04-24T08:55:03.215Z,4.70
2019-04-24T08:57:53.861Z,5.20
2019-04-24T09:05:07.928Z,4.60
2019-04-24T09:10:58.371Z,4.30
2019-04-24T09:13:16.798Z,4.87
2019-04-24T09:20:43.956Z,5.20
2019-04-24T09:23:18.975Z,5.10
2019-04-24T09:25:57.575Z,4.53
2019-04-24T09:30:48.480Z,4.53
2019-04-24T09:38:37.437Z,4.93
2019-04-24T09:41:16.434Z,4.43
2019-04-24T09:43:40.680Z,4.47
2019-04-24T09:46:07.929Z,4.23
2019-04-24T09:53:47.003Z,3.93
2019-04-24T09:55:54.460Z,3.90
2019-04-24T10:03:36.111Z,4.00
2019-04-24T10:06:07.240Z,4.60
2019-04-24T10:08:39.745Z,4.17
2019-04-24T10:11:06.058Z,3.30
2019-04-24T10:14:05.711Z,3.77
2019-04-24T10:16:46.100Z,3.20
2019-04-24T10:21:42.587Z,3.90
2019-04-24T10:24:05.287Z,3.93
2019-04-24T10:26:47.021Z,3.30
2019-04-24T10:32:17.258Z,4.90
2019-04-24T10:34:24.995Z,3.80
2019-04-24T10:37:29.842Z,3.80
2019-04-24T10:40:11.075Z,3.20
2019-04-24T10:42:12.144Z,3.67
2019-04-24T10:44:46.003Z,3.90
2019-04-24T10:57:11.170Z,3.70
2019-04-24T11:05:03.902Z,3.43
2019-04-24T11:07:35.805Z,3.77
2019-04-24T11:10:23.536Z,3.43
2019-04-24T11:13:03.336Z,3.53
2019-04-24T11:18:24.638Z,3.50
2019-04-24T11:21:32.868Z,3.67
2019-04-24T11:26:13.522Z,4.13
2019-04-24T11:31:11.781Z,4.10
2019-04-24T11:36:16.002Z,5.07
2019-04-24T11:38:52.193Z,7.40
2019-04-24T11:41:14.091Z,4.93
2019-04-24T11:43:53.183Z,5.37
2019-04-24T11:46:43.847Z,5.03
2019-04-24T11:53:49.037Z,3.33
2019-04-24T11:56:31.141Z,3.83
2019-04-24T12:02:01.837Z,3.57
2019-04-24T12:04:24.065Z,3.50
2019-04-24T12:09:03.057Z,3.90
2019-04-24T12:14:07.835Z,3.30
2019-04-24T12:16:48.630Z,4.23
2019-04-24T12:19:33.589Z,3.70
2019-04-24T12:22:10.060Z,3.53
2019-04-24T12:26:51.356Z,3.13
2019-04-24T12:32:06.950Z,3.60
2019-04-24T12:34:44.134Z,3.40
2019-04-24T12:39:43.736Z,3.93
2019-04-24T12:42:14.792Z,3.13
2019-04-24T12:44:32.038Z,3.90
2019-04-24T12:47:15.257Z,3.33
2019-04-24T12:52:03.814Z,3.20
2019-04-24T12:54:38.183Z,3.30
2019-04-24T12:59:46.050Z,2.97
2019-04-24T13:02:37.546Z,3.67
2019-04-24T13:05:08.343Z,4.27
2019-04-24T13:07:54.451Z,3.60
2019-04-24T13:10:15.683Z,3.30
2019-04-24T13:12:59.937Z,3.70
2019-04-24T13:15:24.770Z,3.23
2019-04-24T13:18:00.207Z,2.43
2019-04-24T13:19:52.711Z,3.70
2019-04-24T13:22:33.239Z,3.30
2019-04-24T13:25:13.938Z,3.10
2019-04-24T13:28:12.965Z,3.30
2019-04-24T13:30:26.827Z,3.47
2019-04-24T13:33:05.217Z,2.90
2019-04-24T13:35:25.132Z,2.77
2019-04-24T13:40:22.416Z,3.17
2019-04-24T13:42:59.315Z,2.97
2019-04-24T13:48:09.533Z,2.83
2019-04-24T13:50:24.837Z,2.97
2019-04-24T13:57:59.181Z,2.80
2019-04-24T14:00:33.437Z,2.50
2019-04-24T14:03:20.201Z,2.90
2019-04-24T14:05:16.862Z,3.00
2019-04-24T14:08:01.201Z,3.27
2019-04-24T14:10:38.639Z,3.23
2019-04-24T14:17:44.433Z,2.50
2019-04-24T14:20:23.393Z,5.50
2019-04-24T14:22:58.179Z,3.20
2019-04-24T14:25:25.313Z,2.90
2019-04-24T14:27:52.312Z,3.20
2019-04-24T14:30:15.569Z,2.80
2019-04-24T14:32:47.326Z,2.80
2019-04-24T14:35:20.025Z,2.67
2019-04-24T14:37:45.514Z,2.37
2019-04-24T14:42:36.366Z,2.73
2019-04-24T14:47:43.161Z,3.80
2019-04-24T14:52:37.743Z,3.13
2019-04-24T14:55:18.651Z,2.30
2019-04-24T14:57:38.725Z,2.87
2019-04-24T15:00:18.412Z,3.10
2019-04-24T15:07:42.152Z,4.70
2019-04-24T15:10:09.070Z,2.97
2019-04-24T15:12:37.772Z,3.20
2019-04-24T15:15:12.168Z,3.80
2019-04-24T15:17:43.350Z,3.70
2019-04-24T15:20:09.397Z,3.40
2019-04-24T15:27:28.775Z,3.30
2019-04-24T15:29:55.333Z,2.37
2019-04-24T15:32:28.017Z,2.60
2019-04-24T15:34:59.039Z,2.40
2019-04-24T15:37:26.321Z,3.00
2019-04-24T15:40:21.564Z,3.17
2019-04-24T15:42:16.102Z,2.80
2019-04-24T15:45:01.008Z,2.80
2019-04-24T15:47:35.473Z,2.83
2019-04-24T15:49:56.499Z,2.93
2019-04-24T15:51:44.162Z,2.87
2019-04-24T15:54:11.427Z,2.70
2019-04-24T15:56:38.195Z,3.17
2019-04-24T15:59:19.873Z,2.47
2019-04-24T16:02:04.445Z,2.43
2019-04-24T16:04:40.375Z,3.03
2019-04-24T16:06:38.160Z,3.00
2019-04-24T16:09:08.441Z,2.97
2019-04-24T16:11:34.926Z,2.63
2019-04-24T16:14:16.974Z,3.00
2019-04-24T16:17:04.638Z,3.50
2019-04-24T16:19:35.074Z,3.00
2019-04-24T16:21:51.521Z,3.37
2019-04-24T16:32:21.885Z,2.80
2019-04-24T16:34:16.146Z,3.33
2019-04-24T16:39:09.471Z,3.43
2019-04-24T16:44:30.846Z,4.00
2019-04-24T16:46:49.909Z,3.90
2019-04-24T16:49:24.241Z,4.80
2019-04-24T16:51:46.726Z,4.43
2019-04-24T16:56:39.273Z,6.10
2019-04-24T16:59:09.801Z,4.77
2019-04-24T17:04:19.611Z,5.37
2019-04-24T17:09:06.972Z,5.10
2019-04-24T17:14:10.499Z,4.47
2019-04-24T17:17:07.147Z,4.50
2019-04-24T17:19:42.233Z,4.43
2019-04-24T17:21:56.807Z,4.20
2019-04-24T17:24:26.131Z,4.37
2019-04-24T17:26:58.774Z,3.80
2019-04-24T17:31:50.790Z,4.83
2019-04-24T17:36:30.316Z,3.80
2019-04-24T17:38:53.048Z,3.90
2019-04-24T17:41:27.728Z,4.07
2019-04-24T17:44:21.917Z,3.80
2019-04-24T17:46:51.993Z,4.40
2019-04-24T17:49:24.079Z,4.37
2019-04-24T17:52:11.627Z,4.20
2019-04-24T17:54:14.873Z,4.00
2019-04-24T17:58:41.458Z,5.23
2019-04-24T18:01:13.450Z,5.13
2019-04-24T18:03:40.300Z,4.30
2019-04-24T18:06:08.014Z,3.10
2019-04-24T18:08:35.245Z,3.23
2019-04-24T18:11:03.240Z,2.77
2019-04-24T18:13:30.116Z,2.50
2019-04-24T18:15:56.867Z,2.80
2019-04-24T18:18:23.649Z,2.73
2019-04-24T18:20:51.640Z,2.80
2019-04-24T18:23:18.952Z,2.27
2019-04-24T18:25:47.578Z,2.43
2019-04-24T18:28:14.866Z,2.20
2019-04-24T18:30:42.555Z,2.60
2019-04-24T18:33:09.560Z,2.20
2019-04-24T18:35:39.018Z,2.20
2019-04-24T18:38:08.377Z,2.40
2019-04-24T18:40:35.625Z,2.03
2019-04-24T18:43:04.629Z,2.03
2019-04-24T18:45:32.072Z,2.13
2019-04-24T18:47:59.070Z,1.50
2019-04-24T18:50:25.947Z,1.50
2019-04-24T18:52:52.822Z,1.40
2019-04-24T18:55:19.703Z,1.30
2019-04-24T18:57:46.729Z,1.30
2019-04-24T19:00:14.266Z,1.00
2019-04-24T19:02:41.805Z,1.20
2019-04-24T19:05:08.989Z,1.27
2019-04-24T19:07:35.672Z,1.00
2019-04-24T19:10:07.158Z,1.20
2019-04-24T19:12:34.275Z,1.33
2019-04-24T19:15:02.603Z,1.10
2019-04-24T19:17:31.485Z,1.23
2019-04-24T19:19:58.310Z,1.00
2019-04-24T19:22:25.343Z,1.13
2019-04-24T19:24:52.209Z,1.20
2019-04-24T19:27:19.049Z,1.10
2019-04-24T19:29:46.321Z,1.30
2019-04-24T19:32:13.514Z,1.07
2019-04-24T19:34:41.919Z,0.90
2019-04-24T19:37:09.621Z,1.17
2019-04-24T19:39:36.575Z,0.73
2019-04-24T19:42:03.704Z,1.03
2019-04-24T19:44:31.454Z,1.50
2019-04-24T19:46:58.463Z,1.20
2019-04-24T19:49:26.208Z,0.90
2019-04-24T19:51:53.337Z,1.30
2019-04-24T19:54:21.689Z,1.03
2019-04-24T19:56:48.882Z,1.20
2019-04-24T19:59:15.766Z,1.10
2019-04-24T20:01:42.584Z,1.20
2019-04-24T20:04:12.307Z,0.80
2019-04-24T20:06:38.610Z,1.10
2019-04-24T20:09:08.032Z,0.90
2019-04-24T20:11:41.187Z,1.13
2019-04-24T20:14:07.918Z,1.10
2019-04-24T20:16:34.965Z,0.80
2019-04-24T20:19:03.251Z,1.10
2019-04-24T20:21:31.262Z,1.27
2019-04-24T20:23:58.299Z,1.10
2019-04-24T20:26:25.131Z,1.23
2019-04-24T20:28:51.983Z,1.23
2019-04-24T20:31:18.779Z,1.03
2019-04-24T20:33:45.605Z,1.00
2019-04-24T20:36:12.451Z,0.90
2019-04-24T20:38:39.270Z,1.10
2019-04-24T20:41:05.991Z,1.00
2019-04-24T20:43:32.891Z,1.00
2019-04-24T20:45:59.577Z,1.00
2019-04-24T20:48:26.387Z,1.00
2019-04-24T20:50:52.962Z,1.00
2019-04-24T20:53:23.057Z,0.97
2019-04-24T20:55:51.329Z,0.90
2019-04-24T20:58:20.269Z,1.10
2019-04-24T21:00:46.963Z,0.93
2019-04-24T21:03:13.671Z,1.00
2019-04-24T21:05:41.957Z,1.30
2019-04-24T21:08:10.451Z,1.10
2019-04-24T21:10:38.761Z,1.10
2019-04-24T21:13:07.283Z,1.20
2019-04-24T21:15:34.021Z,1.50
2019-04-24T21:18:00.807Z,1.10
2019-04-24T21:20:28.122Z,1.13
2019-04-24T21:22:54.924Z,1.10
2019-04-24T21:25:23.099Z,1.10
2019-04-24T21:27:51.513Z,3.53
2019-04-24T21:30:19.618Z,1.03
2019-04-24T21:32:47.035Z,1.03
2019-04-24T21:35:13.731Z,0.90
2019-04-24T21:37:40.294Z,0.83
2019-04-24T21:40:07.468Z,0.90
2019-04-24T21:42:34.282Z,0.90
2019-04-24T21:45:01.364Z,1.10
2019-04-24T21:47:28.070Z,1.00
2019-04-24T21:49:54.694Z,0.80
2019-04-24T21:52:23.016Z,0.93
2019-04-24T21:54:51.271Z,0.90
2019-04-24T21:57:17.980Z,0.80
2019-04-24T21:59:44.677Z,0.90
2019-04-24T22:02:27.554Z,0.83
2019-04-24T22:05:04.982Z,1.00
2019-04-24T22:07:36.714Z,0.80
2019-04-24T22:10:04.325Z,0.70
2019-04-24T22:12:32.870Z,1.00
2019-04-24T22:15:01.956Z,1.20
2019-04-24T22:17:29.094Z,0.87
2019-04-24T22:19:55.832Z,0.80
2019-04-24T22:22:24.185Z,0.60
2019-04-24T22:24:52.532Z,0.70
2019-04-24T22:27:39.233Z,0.80
2019-04-24T22:30:12.717Z,1.00
2019-04-24T22:32:39.603Z,0.70
2019-04-24T22:35:08.677Z,0.77
2019-04-24T22:37:35.367Z,0.97
2019-04-24T22:40:05.881Z,0.80
2019-04-24T22:42:32.276Z,1.03
2019-04-24T22:44:58.941Z,0.90
2019-04-24T22:47:25.468Z,0.80
2019-04-24T22:49:52.316Z,0.90
2019-04-24T22:52:19.179Z,0.80
2019-04-24T22:54:45.741Z,0.90
2019-04-24T22:57:12.241Z,0.70
2019-04-24T22:59:38.709Z,0.73
2019-04-24T23:02:05.521Z,0.90
2019-04-24T23:04:33.425Z,1.00
2019-04-24T23:07:01.345Z,0.90
2019-04-24T23:09:34.622Z,0.90
2019-04-24T23:12:01.682Z,1.20
2019-04-24T23:14:30.484Z,0.70
2019-04-24T23:16:58.137Z,0.87
2019-04-24T23:19:25.890Z,0.90
2019-04-24T23:22:12.136Z,0.90
2019-04-24T23:24:48.514Z,0.80
2019-04-24T23:27:13.648Z,0.80
2019-04-24T23:29:44.661Z,0.80
2019-04-24T23:32:13.112Z,0.90
2019-04-24T23:34:42.496Z,0.63
2019-04-24T23:37:09.306Z,0.87
2019-04-24T23:39:35.853Z,0.90
2019-04-24T23:42:02.595Z,0.90
2019-04-24T23:44:29.117Z,0.90
2019-04-24T23:46:55.664Z,1.00
2019-04-24T23:49:22.096Z,0.80
2019-04-24T23:51:48.798Z,0.70
2019-04-24T23:54:15.244Z,0.83
2019-04-24T23:56:42.991Z,0.90
2019-04-24T23:59:09.950Z,0.90
